sensor_id;sensor_type;location;lat;lon;timestamp;P1;durP1;ratioP1;P2;durP2;ratioP2
18711;SDS011;9485;49.386;8.674;2023-04-01T00:04:26;1.10;;;0.70;;
18711;SDS011;9485;49.386;8.674;2023-04-01T00:09:48;2.30;;;0.70;;
18711;SDS011;9485;49.386;8.674;2023-04-01T00:15:10;1.87;;;0.80;;
18711;SDS011;9485;49.386;8.674;2023-04-01T00:20:31;2.50;;;0.70;;
18711;SDS011;9485;49.386;8.674;2023-04-01T00:25:53;3.60;;;0.90;;
18711;SDS011;9485;49.386;8.674;2023-04-01T00:31:14;1.30;;;0.67;;
18711;SDS011;9485;49.386;8.674;2023-04-01T00:36:34;1.67;;;0.90;;
18711;SDS011;9485;49.386;8.674;2023-04-01T00:41:57;1.50;;;0.70;;
18711;SDS011;9485;49.386;8.674;2023-04-01T00:47:18;2.17;;;0.87;;
18711;SDS011;9485;49.386;8.674;2023-04-01T00:52:40;0.67;;;0.60;;
18711;SDS011;9485;49.386;8.674;2023-04-01T00:58:03;3.47;;;0.83;;
18711;SDS011;9485;49.386;8.674;2023-04-01T01:03:29;2.23;;;0.87;;
18711;SDS011;9485;49.386;8.674;2023-04-01T01:08:57;2.07;;;0.90;;
18711;SDS011;9485;49.386;8.674;2023-04-01T01:14:53;2.40;;;0.90;;
18711;SDS011;9485;49.386;8.674;2023-04-01T01:20:31;2.43;;;1.17;;
18711;SDS011;9485;49.386;8.674;2023-04-01T01:26:55;2.63;;;0.93;;
18711;SDS011;9485;49.386;8.674;2023-04-01T01:32:33;1.63;;;0.90;;
18711;SDS011;9485;49.386;8.674;2023-04-01T01:38:26;1.30;;;0.67;;
18711;SDS011;9485;49.386;8.674;2023-04-01T01:43:56;1.90;;;1.10;;
18711;SDS011;9485;49.386;8.674;2023-04-01T01:49:19;3.53;;;1.07;;
18711;SDS011;9485;49.386;8.674;2023-04-01T01:54:48;1.17;;;0.67;;
18711;SDS011;9485;49.386;8.674;2023-04-01T02:00:10;0.73;;;0.60;;
18711;SDS011;9485;49.386;8.674;2023-04-01T02:05:36;2.27;;;0.90;;
18711;SDS011;9485;49.386;8.674;2023-04-01T02:11:02;3.00;;;0.90;;
18711;SDS011;9485;49.386;8.674;2023-04-01T02:16:33;2.80;;;0.80;;
18711;SDS011;9485;49.386;8.674;2023-04-01T02:21:59;2.07;;;0.80;;
18711;SDS011;9485;49.386;8.674;2023-04-01T02:27:27;3.13;;;0.83;;
18711;SDS011;9485;49.386;8.674;2023-04-01T02:32:50;2.70;;;0.80;;
18711;SDS011;9485;49.386;8.674;2023-04-01T02:38:11;3.70;;;0.90;;
18711;SDS011;9485;49.386;8.674;2023-04-01T02:43:35;2.23;;;0.73;;
18711;SDS011;9485;49.386;8.674;2023-04-01T02:48:56;3.53;;;0.70;;
18711;SDS011;9485;49.386;8.674;2023-04-01T02:54:17;4.37;;;0.80;;
18711;SDS011;9485;49.386;8.674;2023-04-01T02:59:39;2.60;;;0.70;;
18711;SDS011;9485;49.386;8.674;2023-04-01T03:05:00;1.80;;;0.87;;
18711;SDS011;9485;49.386;8.674;2023-04-01T03:10:21;1.87;;;0.97;;
18711;SDS011;9485;49.386;8.674;2023-04-01T03:15:43;1.57;;;0.70;;
18711;SDS011;9485;49.386;8.674;2023-04-01T03:21:13;4.37;;;0.90;;
18711;SDS011;9485;49.386;8.674;2023-04-01T03:26:37;3.93;;;1.00;;
18711;SDS011;9485;49.386;8.674;2023-04-01T03:32:00;1.93;;;0.80;;
18711;SDS011;9485;49.386;8.674;2023-04-01T03:37:20;3.57;;;0.90;;
18711;SDS011;9485;49.386;8.674;2023-04-01T03:42:43;1.97;;;0.80;;
18711;SDS011;9485;49.386;8.674;2023-04-01T03:48:05;3.43;;;0.90;;
18711;SDS011;9485;49.386;8.674;2023-04-01T03:53:26;1.17;;;0.57;;
18711;SDS011;9485;49.386;8.674;2023-04-01T03:58:50;0.80;;;0.70;;
18711;SDS011;9485;49.386;8.674;2023-04-01T04:04:11;0.73;;;0.57;;
18711;SDS011;9485;49.386;8.674;2023-04-01T04:09:33;1.93;;;0.70;;
18711;SDS011;9485;49.386;8.674;2023-04-01T04:14:54;1.30;;;0.70;;
18711;SDS011;9485;49.386;8.674;2023-04-01T04:20:16;2.73;;;0.87;;
18711;SDS011;9485;49.386;8.674;2023-04-01T04:25:37;1.13;;;0.70;;
18711;SDS011;9485;49.386;8.674;2023-04-01T04:30:58;2.90;;;0.80;;
18711;SDS011;9485;49.386;8.674;2023-04-01T04:36:21;1.63;;;0.70;;
18711;SDS011;9485;49.386;8.674;2023-04-01T04:41:44;1.80;;;0.70;;
18711;SDS011;9485;49.386;8.674;2023-04-01T04:47:05;3.17;;;0.70;;
18711;SDS011;9485;49.386;8.674;2023-04-01T04:52:27;1.90;;;0.80;;
18711;SDS011;9485;49.386;8.674;2023-04-01T04:57:47;0.83;;;0.70;;
18711;SDS011;9485;49.386;8.674;2023-04-01T05:03:09;2.93;;;1.10;;
18711;SDS011;9485;49.386;8.674;2023-04-01T05:08:31;1.47;;;0.90;;
18711;SDS011;9485;49.386;8.674;2023-04-01T05:13:53;2.80;;;0.80;;
18711;SDS011;9485;49.386;8.674;2023-04-01T05:19:14;2.20;;;0.80;;
18711;SDS011;9485;49.386;8.674;2023-04-01T05:24:36;1.83;;;0.73;;
18711;SDS011;9485;49.386;8.674;2023-04-01T05:29:57;2.80;;;0.80;;
18711;SDS011;9485;49.386;8.674;2023-04-01T05:35:38;2.67;;;0.77;;
18711;SDS011;9485;49.386;8.674;2023-04-01T05:41:01;2.13;;;0.83;;
18711;SDS011;9485;49.386;8.674;2023-04-01T05:46:25;3.03;;;0.80;;
18711;SDS011;9485;49.386;8.674;2023-04-01T05:51:51;2.10;;;0.80;;
18711;SDS011;9485;49.386;8.674;2023-04-01T05:57:14;2.60;;;0.90;;
18711;SDS011;9485;49.386;8.674;2023-04-01T06:02:34;1.53;;;0.83;;
18711;SDS011;9485;49.386;8.674;2023-04-01T06:07:57;1.43;;;0.80;;
18711;SDS011;9485;49.386;8.674;2023-04-01T06:13:29;4.20;;;1.07;;
18711;SDS011;9485;49.386;8.674;2023-04-01T06:19:12;2.63;;;0.93;;
18711;SDS011;9485;49.386;8.674;2023-04-01T06:24:58;1.77;;;0.70;;
18711;SDS011;9485;49.386;8.674;2023-04-01T06:30:55;3.53;;;1.00;;
18711;SDS011;9485;49.386;8.674;2023-04-01T06:36:39;2.97;;;1.00;;
18711;SDS011;9485;49.386;8.674;2023-04-01T06:42:33;1.80;;;0.90;;
18711;SDS011;9485;49.386;8.674;2023-04-01T06:48:39;1.77;;;1.00;;
18711;SDS011;9485;49.386;8.674;2023-04-01T06:54:34;1.17;;;0.70;;
18711;SDS011;9485;49.386;8.674;2023-04-01T07:00:21;1.47;;;0.77;;
18711;SDS011;9485;49.386;8.674;2023-04-01T07:05:55;1.17;;;0.60;;
18711;SDS011;9485;49.386;8.674;2023-04-01T07:11:24;1.73;;;0.80;;
18711;SDS011;9485;49.386;8.674;2023-04-01T07:17:20;3.10;;;0.87;;
18711;SDS011;9485;49.386;8.674;2023-04-01T07:22:47;1.53;;;0.80;;
18711;SDS011;9485;49.386;8.674;2023-04-01T07:28:19;1.00;;;0.60;;
18711;SDS011;9485;49.386;8.674;2023-04-01T07:33:51;1.23;;;0.60;;
18711;SDS011;9485;49.386;8.674;2023-04-01T07:39:28;2.37;;;0.80;;
18711;SDS011;9485;49.386;8.674;2023-04-01T07:45:08;1.37;;;0.90;;
18711;SDS011;9485;49.386;8.674;2023-04-01T07:50:46;1.17;;;0.70;;
18711;SDS011;9485;49.386;8.674;2023-04-01T07:56:21;4.60;;;1.00;;
18711;SDS011;9485;49.386;8.674;2023-04-01T08:01:52;1.37;;;0.70;;
18711;SDS011;9485;49.386;8.674;2023-04-01T08:07:28;1.13;;;0.63;;
18711;SDS011;9485;49.386;8.674;2023-04-01T08:13:26;0.67;;;0.67;;
18711;SDS011;9485;49.386;8.674;2023-04-01T08:19:19;0.87;;;0.60;;
18711;SDS011;9485;49.386;8.674;2023-04-01T08:24:54;1.07;;;0.70;;
18711;SDS011;9485;49.386;8.674;2023-04-01T08:30:23;1.10;;;0.70;;
18711;SDS011;9485;49.386;8.674;2023-04-01T08:35:49;1.40;;;0.60;;
18711;SDS011;9485;49.386;8.674;2023-04-01T08:41:21;1.27;;;0.70;;
18711;SDS011;9485;49.386;8.674;2023-04-01T08:47:51;2.90;;;0.60;;
18711;SDS011;9485;49.386;8.674;2023-04-01T08:53:39;0.87;;;0.60;;
18711;SDS011;9485;49.386;8.674;2023-04-01T08:59:25;3.23;;;0.80;;
18711;SDS011;9485;49.386;8.674;2023-04-01T09:05:37;1.10;;;0.53;;
18711;SDS011;9485;49.386;8.674;2023-04-01T09:11:27;0.60;;;0.60;;
18711;SDS011;9485;49.386;8.674;2023-04-01T09:17:29;0.87;;;0.50;;
18711;SDS011;9485;49.386;8.674;2023-04-01T09:23:27;1.97;;;1.00;;
18711;SDS011;9485;49.386;8.674;2023-04-01T09:29:08;1.70;;;0.60;;
18711;SDS011;9485;49.386;8.674;2023-04-01T09:34:51;1.13;;;0.80;;
18711;SDS011;9485;49.386;8.674;2023-04-01T09:40:22;1.03;;;0.63;;
18711;SDS011;9485;49.386;8.674;2023-04-01T09:51:57;1.03;;;0.80;;
18711;SDS011;9485;49.386;8.674;2023-04-01T09:57:41;1.07;;;0.70;;
18711;SDS011;9485;49.386;8.674;2023-04-01T10:10:56;1.40;;;0.70;;
18711;SDS011;9485;49.386;8.674;2023-04-01T10:48:31;0.60;;;0.60;;
18711;SDS011;9485;49.386;8.674;2023-04-01T10:54:41;1.47;;;0.67;;
18711;SDS011;9485;49.386;8.674;2023-04-01T11:00:30;2.00;;;0.80;;
18711;SDS011;9485;49.386;8.674;2023-04-01T11:12:53;1.17;;;0.60;;
18711;SDS011;9485;49.386;8.674;2023-04-01T11:18:57;0.73;;;0.67;;
18711;SDS011;9485;49.386;8.674;2023-04-01T11:37:10;0.90;;;0.70;;
18711;SDS011;9485;49.386;8.674;2023-04-01T11:43:06;0.60;;;0.60;;
18711;SDS011;9485;49.386;8.674;2023-04-01T11:49:12;1.20;;;0.60;;
18711;SDS011;9485;49.386;8.674;2023-04-01T11:55:15;1.97;;;0.80;;
18711;SDS011;9485;49.386;8.674;2023-04-01T12:00:58;0.90;;;0.73;;
18711;SDS011;9485;49.386;8.674;2023-04-01T12:06:34;1.37;;;0.67;;
18711;SDS011;9485;49.386;8.674;2023-04-01T12:12:10;0.50;;;0.50;;
18711;SDS011;9485;49.386;8.674;2023-04-01T12:17:43;1.00;;;0.80;;
18711;SDS011;9485;49.386;8.674;2023-04-01T12:23:22;0.67;;;0.67;;
18711;SDS011;9485;49.386;8.674;2023-04-01T12:29:07;0.77;;;0.77;;
18711;SDS011;9485;49.386;8.674;2023-04-01T12:40:57;0.57;;;0.53;;
18711;SDS011;9485;49.386;8.674;2023-04-01T12:46:30;0.80;;;0.70;;
18711;SDS011;9485;49.386;8.674;2023-04-01T12:52:10;1.80;;;0.63;;
18711;SDS011;9485;49.386;8.674;2023-04-01T12:57:43;0.60;;;0.60;;
18711;SDS011;9485;49.386;8.674;2023-04-01T13:10:08;0.50;;;0.50;;
18711;SDS011;9485;49.386;8.674;2023-04-01T13:15:47;0.50;;;0.50;;
18711;SDS011;9485;49.386;8.674;2023-04-01T13:21:13;0.80;;;0.60;;
18711;SDS011;9485;49.386;8.674;2023-04-01T13:26:44;0.60;;;0.60;;
18711;SDS011;9485;49.386;8.674;2023-04-01T13:32:22;0.60;;;0.60;;
18711;SDS011;9485;49.386;8.674;2023-04-01T13:37:59;0.53;;;0.50;;
18711;SDS011;9485;49.386;8.674;2023-04-01T13:43:45;0.57;;;0.57;;
18711;SDS011;9485;49.386;8.674;2023-04-01T13:49:21;0.53;;;0.53;;
18711;SDS011;9485;49.386;8.674;2023-04-01T13:55:16;0.97;;;0.70;;
18711;SDS011;9485;49.386;8.674;2023-04-01T14:01:00;0.60;;;0.53;;
18711;SDS011;9485;49.386;8.674;2023-04-01T14:06:36;0.63;;;0.63;;
18711;SDS011;9485;49.386;8.674;2023-04-01T14:12:14;0.70;;;0.70;;
18711;SDS011;9485;49.386;8.674;2023-04-01T14:17:54;1.07;;;0.97;;
18711;SDS011;9485;49.386;8.674;2023-04-01T14:23:36;1.83;;;0.80;;
18711;SDS011;9485;49.386;8.674;2023-04-01T14:29:38;0.93;;;0.60;;
18711;SDS011;9485;49.386;8.674;2023-04-01T14:41:19;0.77;;;0.70;;
18711;SDS011;9485;49.386;8.674;2023-04-01T14:47:03;0.60;;;0.60;;
18711;SDS011;9485;49.386;8.674;2023-04-01T14:52:58;0.60;;;0.60;;
18711;SDS011;9485;49.386;8.674;2023-04-01T14:58:42;0.83;;;0.80;;
18711;SDS011;9485;49.386;8.674;2023-04-01T15:04:09;0.87;;;0.67;;
18711;SDS011;9485;49.386;8.674;2023-04-01T15:09:55;1.03;;;0.70;;
18711;SDS011;9485;49.386;8.674;2023-04-01T15:15:31;1.20;;;0.70;;
18711;SDS011;9485;49.386;8.674;2023-04-01T15:27:29;1.93;;;0.60;;
18711;SDS011;9485;49.386;8.674;2023-04-01T15:33:08;0.83;;;0.80;;
18711;SDS011;9485;49.386;8.674;2023-04-01T15:38:46;0.70;;;0.70;;
18711;SDS011;9485;49.386;8.674;2023-04-01T15:50:32;1.80;;;0.80;;
18711;SDS011;9485;49.386;8.674;2023-04-01T15:56:11;0.70;;;0.70;;
18711;SDS011;9485;49.386;8.674;2023-04-01T16:01:50;1.27;;;0.80;;
18711;SDS011;9485;49.386;8.674;2023-04-01T16:07:28;1.17;;;0.97;;
18711;SDS011;9485;49.386;8.674;2023-04-01T16:13:13;1.33;;;0.90;;
18711;SDS011;9485;49.386;8.674;2023-04-01T16:18:50;1.10;;;0.90;;
18711;SDS011;9485;49.386;8.674;2023-04-01T16:24:35;0.80;;;0.80;;
18711;SDS011;9485;49.386;8.674;2023-04-01T16:35:54;0.70;;;0.70;;
18711;SDS011;9485;49.386;8.674;2023-04-01T16:41:28;1.33;;;1.03;;
18711;SDS011;9485;49.386;8.674;2023-04-01T16:46:53;1.53;;;0.80;;
18711;SDS011;9485;49.386;8.674;2023-04-01T16:52:29;0.80;;;0.80;;
18711;SDS011;9485;49.386;8.674;2023-04-01T16:58:03;0.77;;;0.77;;
18711;SDS011;9485;49.386;8.674;2023-04-01T17:03:30;1.43;;;0.70;;
18711;SDS011;9485;49.386;8.674;2023-04-01T17:09:03;0.70;;;0.70;;
18711;SDS011;9485;49.386;8.674;2023-04-01T17:14:58;0.70;;;0.70;;
18711;SDS011;9485;49.386;8.674;2023-04-01T17:20:40;1.00;;;0.80;;
18711;SDS011;9485;49.386;8.674;2023-04-01T17:26:11;1.13;;;0.80;;
18711;SDS011;9485;49.386;8.674;2023-04-01T17:31:52;1.37;;;0.87;;
18711;SDS011;9485;49.386;8.674;2023-04-01T17:37:30;1.93;;;1.10;;
18711;SDS011;9485;49.386;8.674;2023-04-01T17:43:12;0.93;;;0.90;;
18711;SDS011;9485;49.386;8.674;2023-04-01T17:48:49;1.23;;;0.93;;
18711;SDS011;9485;49.386;8.674;2023-04-01T17:54:21;1.20;;;1.10;;
18711;SDS011;9485;49.386;8.674;2023-04-01T17:59:52;1.20;;;0.97;;
18711;SDS011;9485;49.386;8.674;2023-04-01T18:05:35;1.07;;;0.70;;
18711;SDS011;9485;49.386;8.674;2023-04-01T18:11:17;1.33;;;1.00;;
18711;SDS011;9485;49.386;8.674;2023-04-01T18:17:03;1.07;;;0.97;;
18711;SDS011;9485;49.386;8.674;2023-04-01T18:22:43;1.17;;;1.07;;
18711;SDS011;9485;49.386;8.674;2023-04-01T18:28:19;0.77;;;0.73;;
18711;SDS011;9485;49.386;8.674;2023-04-01T18:33:54;1.33;;;1.00;;
18711;SDS011;9485;49.386;8.674;2023-04-01T18:39:32;1.20;;;0.90;;
18711;SDS011;9485;49.386;8.674;2023-04-01T18:44:59;1.10;;;0.90;;
18711;SDS011;9485;49.386;8.674;2023-04-01T18:50:36;1.23;;;0.70;;
18711;SDS011;9485;49.386;8.674;2023-04-01T18:56:05;0.87;;;0.70;;
18711;SDS011;9485;49.386;8.674;2023-04-01T19:01:31;0.70;;;0.70;;
18711;SDS011;9485;49.386;8.674;2023-04-01T19:07:21;0.70;;;0.70;;
18711;SDS011;9485;49.386;8.674;2023-04-01T19:13:08;1.07;;;0.90;;
18711;SDS011;9485;49.386;8.674;2023-04-01T19:18:45;1.10;;;0.80;;
18711;SDS011;9485;49.386;8.674;2023-04-01T19:24:30;0.90;;;0.90;;
18711;SDS011;9485;49.386;8.674;2023-04-01T19:36:03;1.30;;;0.83;;
18711;SDS011;9485;49.386;8.674;2023-04-01T19:41:40;1.10;;;1.00;;
18711;SDS011;9485;49.386;8.674;2023-04-01T19:47:14;1.03;;;0.93;;
18711;SDS011;9485;49.386;8.674;2023-04-01T19:52:49;1.57;;;1.13;;
18711;SDS011;9485;49.386;8.674;2023-04-01T19:58:16;2.03;;;1.07;;
18711;SDS011;9485;49.386;8.674;2023-04-01T20:03:46;1.17;;;1.07;;
18711;SDS011;9485;49.386;8.674;2023-04-01T20:09:23;1.20;;;1.10;;
18711;SDS011;9485;49.386;8.674;2023-04-01T20:15:20;0.90;;;0.80;;
18711;SDS011;9485;49.386;8.674;2023-04-01T20:20:54;0.80;;;0.80;;
18711;SDS011;9485;49.386;8.674;2023-04-01T20:26:20;0.97;;;0.90;;
18711;SDS011;9485;49.386;8.674;2023-04-01T20:31:47;1.17;;;0.90;;
18711;SDS011;9485;49.386;8.674;2023-04-01T20:37:30;1.33;;;0.93;;
18711;SDS011;9485;49.386;8.674;2023-04-01T20:55:19;2.23;;;0.90;;
18711;SDS011;9485;49.386;8.674;2023-04-01T21:00:53;1.10;;;1.00;;
18711;SDS011;9485;49.386;8.674;2023-04-01T21:06:35;1.10;;;0.87;;
18711;SDS011;9485;49.386;8.674;2023-04-01T21:12:24;2.30;;;1.20;;
18711;SDS011;9485;49.386;8.674;2023-04-01T21:17:58;1.57;;;1.27;;
18711;SDS011;9485;49.386;8.674;2023-04-01T21:23:59;2.47;;;1.20;;
18711;SDS011;9485;49.386;8.674;2023-04-01T21:30:01;2.07;;;1.40;;
18711;SDS011;9485;49.386;8.674;2023-04-01T21:35:49;1.80;;;0.97;;
18711;SDS011;9485;49.386;8.674;2023-04-01T21:41:26;2.33;;;1.10;;
18711;SDS011;9485;49.386;8.674;2023-04-01T21:59:47;1.30;;;1.20;;
18711;SDS011;9485;49.386;8.674;2023-04-01T22:05:39;2.03;;;1.37;;
18711;SDS011;9485;49.386;8.674;2023-04-01T22:11:13;1.80;;;1.07;;
18711;SDS011;9485;49.386;8.674;2023-04-01T22:16:53;1.57;;;1.30;;
18711;SDS011;9485;49.386;8.674;2023-04-01T22:22:24;2.00;;;0.93;;
18711;SDS011;9485;49.386;8.674;2023-04-01T22:27:53;0.90;;;0.90;;
18711;SDS011;9485;49.386;8.674;2023-04-01T22:33:21;1.07;;;0.97;;
18711;SDS011;9485;49.386;8.674;2023-04-01T22:38:58;1.20;;;1.10;;
18711;SDS011;9485;49.386;8.674;2023-04-01T22:44:39;1.90;;;1.10;;
18711;SDS011;9485;49.386;8.674;2023-04-01T22:50:18;1.20;;;1.10;;
18711;SDS011;9485;49.386;8.674;2023-04-01T22:55:50;2.73;;;1.30;;
18711;SDS011;9485;49.386;8.674;2023-04-01T23:01:14;1.60;;;1.27;;
18711;SDS011;9485;49.386;8.674;2023-04-01T23:06:44;1.37;;;1.23;;
18711;SDS011;9485;49.386;8.674;2023-04-01T23:12:13;1.37;;;1.17;;
18711;SDS011;9485;49.386;8.674;2023-04-01T23:17:46;1.90;;;1.17;;
18711;SDS011;9485;49.386;8.674;2023-04-01T23:23:25;1.20;;;1.10;;
18711;SDS011;9485;49.386;8.674;2023-04-01T23:29:00;1.13;;;1.00;;
18711;SDS011;9485;49.386;8.674;2023-04-01T23:34:23;1.37;;;1.00;;
18711;SDS011;9485;49.386;8.674;2023-04-01T23:39:50;2.93;;;1.10;;
18711;SDS011;9485;49.386;8.674;2023-04-01T23:45:17;1.43;;;1.10;;
18711;SDS011;9485;49.386;8.674;2023-04-01T23:50:39;3.53;;;1.30;;
18711;SDS011;9485;49.386;8.674;2023-04-01T23:56:02;1.70;;;1.10;;
